Time;durP1;ratioP1;P1;durP2;ratioP2;P2;SDS_P1;SDS_P2;PMS_P1;PMS_P2;Temp;Humidity;BMP_temperature;BMP_pressure;BME280_temperature;BME280_humidity;BME280_pressure;Samples;Min_cycle;Max_cycle;Signal;HPM_P1;HPM_P2
2022/04/18 00:00:21;;;;;;;2.85;2.30;;;8.50;66.80;;;;;;5030001;28;20112;-47
2022/04/18 00:02:47;;;;;;;2.05;1.90;;;8.50;66.70;;;;;;5030686;28;20040;-49
2022/04/18 00:05:12;;;;;;;4.53;2.08;;;8.50;66.80;;;;;;5030806;28;20029;-47
2022/04/18 00:07:38;;;;;;;1.90;1.77;;;8.50;67.30;;;;;;5045912;28;20030;-43
2022/04/18 00:10:04;;;;;;;5.07;2.80;;;8.50;67.50;;;;;;5030023;28;20404;-45
2022/04/18 00:12:30;;;;;;;2.60;2.40;;;8.40;67.80;;;;;;5030812;28;20465;-45
2022/04/18 00:14:56;;;;;;;2.15;1.98;;;8.40;68.10;;;;;;5029218;28;20095;-45
2022/04/18 00:17:21;;;;;;;4.68;2.42;;;8.30;68.30;;;;;;5029966;28;20049;-45
2022/04/18 00:19:47;;;;;;;4.82;2.05;;;8.30;68.40;;;;;;5030086;28;20021;-45
2022/04/18 00:22:12;;;;;;;2.55;2.33;;;8.20;68.60;;;;;;5030136;28;20026;-46
2022/04/18 00:24:38;;;;;;;3.92;2.20;;;8.10;68.70;;;;;;5029744;28;20067;-45
2022/04/18 00:27:04;;;;;;;2.70;2.35;;;8.10;69.00;;;;;;5029987;28;20018;-43
2022/04/18 00:29:30;;;;;;;3.67;2.15;;;8.10;69.30;;;;;;5030177;28;20040;-46
2022/04/18 00:31:55;;;;;;;4.13;2.65;;;8.10;69.60;;;;;;5029625;28;20504;-50
2022/04/18 00:34:21;;;;;;;2.33;2.13;;;8.10;69.70;;;;;;5029827;28;20508;-45
2022/04/18 00:36:47;;;;;;;7.25;2.25;;;8.10;70.00;;;;;;5029642;28;20029;-41
2022/04/18 00:39:12;;;;;;;4.20;2.60;;;8.10;70.00;;;;;;5029090;28;20104;-45
2022/04/18 00:41:38;;;;;;;3.53;2.60;;;8.20;70.00;;;;;;5029622;28;20026;-44
2022/04/18 00:44:04;;;;;;;2.58;2.38;;;8.10;70.20;;;;;;5031308;28;20021;-43
2022/04/18 00:46:29;;;;;;;2.38;2.20;;;8.10;70.40;;;;;;5030989;28;20022;-44
2022/04/18 00:48:55;;;;;;;2.80;2.35;;;8.10;70.80;;;;;;5030692;28;20029;-42
2022/04/18 00:51:22;;;;;;;6.65;2.30;;;8.10;70.90;;;;;;5030878;28;20119;-44
2022/04/18 00:53:51;;;;;;;2.85;2.60;;;8.10;71.40;;;;;;5030687;28;20025;-45
2022/04/18 00:56:18;;;;;;;4.60;2.10;;;8.00;71.60;;;;;;5030918;28;20172;-46
2022/04/18 00:58:46;;;;;;;3.22;2.47;;;7.90;71.70;;;;;;5030458;28;20413;-46
2022/04/18 01:01:12;;;;;;;3.08;2.78;;;7.90;72.00;;;;;;5030418;28;20027;-48
2022/04/18 01:03:37;;;;;;;2.42;2.22;;;7.90;72.00;;;;;;5046000;28;20025;-47
2022/04/18 01:06:04;;;;;;;1.95;1.83;;;7.80;72.20;;;;;;5030379;28;20037;-49
2022/04/18 01:08:31;;;;;;;2.58;2.30;;;7.70;72.20;;;;;;5030245;28;20025;-49
2022/04/18 01:10:57;;;;;;;3.10;2.08;;;7.70;72.40;;;;;;5030680;28;20026;-41
2022/04/18 01:13:22;;;;;;;4.57;2.10;;;7.60;72.50;;;;;;5031183;28;20033;-47
2022/04/18 01:15:56;;;;;;;3.50;2.20;;;7.60;72.70;;;;;;5031702;28;20104;-42
2022/04/18 01:18:21;;;;;;;4.50;2.08;;;7.60;72.90;;;;;;5031676;28;20108;-43
2022/04/18 01:20:47;;;;;;;5.10;3.15;;;7.60;73.10;;;;;;5031373;28;20116;-38
2022/04/18 01:23:13;;;;;;;6.28;2.45;;;7.60;73.80;;;;;;5032023;28;20030;-42
2022/04/18 01:31:07;;;;;;;4.50;1.92;;;7.60;73.40;;;;;;5031889;28;20524;-46
2022/04/18 01:33:33;;;;;;;2.40;2.20;;;7.60;73.70;;;;;;5031697;28;20100;-48
2022/04/18 01:35:58;;;;;;;6.95;2.78;;;7.60;73.80;;;;;;5031648;28;20032;-45
2022/04/18 01:38:24;;;;;;;2.70;1.90;;;7.50;74.10;;;;;;5031387;28;20037;-43
2022/04/18 01:40:50;;;;;;;5.20;2.05;;;7.50;74.10;;;;;;5031173;28;20033;-41
2022/04/18 01:43:16;;;;;;;2.55;2.15;;;7.60;74.30;;;;;;5032007;28;20029;-42
2022/04/18 01:45:41;;;;;;;3.63;2.30;;;7.50;74.60;;;;;;5030132;28;20044;-46
2022/04/18 01:48:07;;;;;;;5.88;2.83;;;7.50;74.80;;;;;;5031125;28;20041;-46
2022/04/18 01:50:32;;;;;;;1.95;1.75;;;7.50;75.00;;;;;;5031360;28;20524;-42
2022/04/18 01:52:58;;;;;;;2.72;2.53;;;7.50;75.30;;;;;;5031635;28;20071;-43
2022/04/18 01:55:24;;;;;;;2.50;2.25;;;7.50;75.30;;;;;;5031051;28;20056;-49
2022/04/18 01:57:49;;;;;;;5.80;2.40;;;7.50;75.20;;;;;;5031243;28;20088;-44
2022/04/18 02:00:15;;;;;;;2.97;2.40;;;7.50;76.00;;;;;;5031765;28;20034;-44
2022/04/18 02:02:40;;;;;;;2.38;2.17;;;7.40;76.00;;;;;;5031463;28;20025;-39
2022/04/18 02:05:09;;;;;;;2.88;2.42;;;7.40;76.30;;;;;;5031387;28;20093;-49
2022/04/18 02:07:35;;;;;;;5.28;2.53;;;7.40;76.40;;;;;;5031832;28;20493;-44
2022/04/18 02:10:02;;;;;;;4.75;2.63;;;7.30;76.70;;;;;;5030764;28;20040;-46
2022/04/18 02:12:28;;;;;;;7.40;2.83;;;7.20;77.10;;;;;;5032454;28;20032;-43
2022/04/18 02:14:53;;;;;;;6.00;2.65;;;7.20;77.90;;;;;;5031210;28;20025;-38
2022/04/18 02:17:19;;;;;;;2.85;2.53;;;7.20;77.60;;;;;;5055697;23;20033;-46
2022/04/18 02:19:45;;;;;;;4.60;3.35;;;7.20;78.10;;;;;;5046095;28;20077;-48
2022/04/18 02:22:12;;;;;;;3.30;3.00;;;7.20;78.20;;;;;;5033197;28;20029;-47
2022/04/18 02:24:38;;;;;;;4.93;3.33;;;7.20;78.40;;;;;;5033387;28;20017;-46
2022/04/18 02:27:04;;;;;;;5.13;3.38;;;7.10;78.70;;;;;;5032959;28;20021;-50
2022/04/18 02:29:30;;;;;;;5.63;3.03;;;7.10;79.00;;;;;;5051385;28;20510;-48
2022/04/18 02:34:39;;;;;;;5.50;3.28;;;7.10;79.50;;;;;;5051090;28;20090;-49
2022/04/18 02:37:05;;;;;;;3.63;3.30;;;7.00;79.70;;;;;;5050738;28;20128;-48
2022/04/18 02:39:30;;;;;;;4.32;3.00;;;7.00;80.00;;;;;;5053119;28;20021;-47
2022/04/18 02:41:57;;;;;;;7.07;3.30;;;7.00;80.20;;;;;;5054757;28;20024;-47
2022/04/18 02:44:23;;;;;;;8.13;3.25;;;7.00;80.30;;;;;;5054821;28;20017;-47
2022/04/18 02:46:49;;;;;;;4.95;3.55;;;7.00;80.40;;;;;;5054545;28;20028;-48
2022/04/18 02:49:15;;;;;;;5.63;3.67;;;7.00;80.70;;;;;;5054709;28;20024;-47
2022/04/18 02:51:40;;;;;;;7.10;3.58;;;7.00;80.90;;;;;;5054748;28;20033;-50
2022/04/18 02:54:06;;;;;;;5.40;3.78;;;7.00;81.10;;;;;;5054564;28;20107;-45
2022/04/18 02:56:31;;;;;;;4.15;3.40;;;6.90;81.30;;;;;;5053973;28;20033;-47
2022/04/18 02:58:57;;;;;;;5.55;3.50;;;6.90;81.60;;;;;;5054114;28;20110;-48
2022/04/18 03:01:22;;;;;;;6.55;3.45;;;7.00;81.70;;;;;;5054373;28;20033;-50
2022/04/18 03:03:49;;;;;;;6.75;3.70;;;6.90;81.80;;;;;;5052884;28;20082;-47
2022/04/18 03:06:14;;;;;;;4.90;3.58;;;6.80;82.10;;;;;;5054427;28;20021;-47
2022/04/18 03:08:40;;;;;;;3.78;3.22;;;6.90;82.30;;;;;;5054094;28;20039;-47
2022/04/18 03:11:06;;;;;;;7.22;3.75;;;6.80;82.50;;;;;;5052834;28;20090;-47
2022/04/18 03:13:33;;;;;;;3.92;3.35;;;6.80;82.70;;;;;;5054261;28;20031;-48
2022/04/18 03:15:59;;;;;;;6.07;3.13;;;6.80;83.00;;;;;;5052941;28;20025;-48
2022/04/18 03:18:26;;;;;;;3.47;3.10;;;6.80;83.20;;;;;;5053572;28;20040;-49
2022/04/18 03:20:51;;;;;;;8.50;3.45;;;6.80;83.30;;;;;;5053999;28;20086;-52
2022/04/18 03:23:17;;;;;;;2.92;2.38;;;6.70;83.60;;;;;;5054039;28;20021;-51
2022/04/18 03:25:42;;;;;;;4.13;3.00;;;6.70;83.80;;;;;;5054048;28;20048;-48
2022/04/18 03:28:09;;;;;;;4.15;3.20;;;6.70;83.90;;;;;;5053686;28;20025;-49
2022/04/18 03:30:35;;;;;;;14.68;3.55;;;6.80;83.80;;;;;;5053991;28;20021;-48
2022/04/18 03:33:00;;;;;;;3.63;2.65;;;6.80;83.70;;;;;;5052480;28;20374;-47
2022/04/18 03:35:27;;;;;;;3.47;2.70;;;6.80;83.70;;;;;;5052681;28;20116;-51
2022/04/18 03:40:37;;;;;;;3.65;3.22;;;6.80;84.10;;;;;;5053705;28;20424;-48
2022/04/18 03:43:03;;;;;;;6.50;2.65;;;6.80;84.40;;;;;;5053728;28;20021;-46
2022/04/18 03:45:29;;;;;;;3.47;2.78;;;6.80;84.40;;;;;;5053868;28;20017;-49
2022/04/18 03:47:54;;;;;;;2.85;2.40;;;6.80;84.60;;;;;;5052372;28;20025;-52
2022/04/18 03:50:20;;;;;;;3.20;2.90;;;6.80;84.70;;;;;;5054470;28;20024;-48
2022/04/18 03:52:45;;;;;;;2.58;2.10;;;6.80;84.90;;;;;;5054572;28;20025;-48
2022/04/18 03:55:12;;;;;;;2.60;2.22;;;6.80;85.20;;;;;;5054239;28;20025;-48
2022/04/18 03:57:38;;;;;;;2.20;2.00;;;6.70;85.50;;;;;;5053372;28;20121;-48
2022/04/18 04:00:08;;;;;;;4.47;2.80;;;6.80;85.50;;;;;;5052428;28;20025;-48
2022/04/18 04:02:33;;;;;;;2.95;2.58;;;6.80;85.10;;;;;;5052267;28;20494;-49
2022/04/18 04:04:59;;;;;;;5.93;3.00;;;6.80;85.40;;;;;;5053630;28;20105;-49
2022/04/18 04:07:24;;;;;;;2.75;2.55;;;6.80;85.60;;;;;;5051815;28;20025;-51
2022/04/18 04:09:50;;;;;;;2.25;2.15;;;6.70;85.90;;;;;;5053221;28;20029;-47
2022/04/18 04:12:25;;;;;;;3.03;2.63;;;6.70;86.10;;;;;;5053339;28;20040;-48
2022/04/18 04:14:54;;;;;;;2.28;2.13;;;6.70;86.50;;;;;;5053329;28;20025;-47
2022/04/18 04:17:24;;;;;;;2.90;2.25;;;6.70;86.70;;;;;;5051465;28;20028;-51
2022/04/18 04:19:50;;;;;;;5.68;2.67;;;6.70;86.60;;;;;;5052948;28;20469;-47
2022/04/18 04:22:15;;;;;;;8.57;2.53;;;6.70;87.00;;;;;;5051707;28;20070;-48
2022/04/18 04:24:41;;;;;;;5.22;2.60;;;6.70;86.90;;;;;;5052898;28;20027;-48
2022/04/18 04:27:06;;;;;;;2.72;2.53;;;6.70;86.90;;;;;;5051336;28;20112;-50
2022/04/18 04:29:32;;;;;;;5.13;2.42;;;6.70;87.10;;;;;;5053188;28;20508;-47
2022/04/18 04:31:58;;;;;;;6.72;2.88;;;6.70;87.40;;;;;;5053188;28;20100;-48
2022/04/18 04:34:24;;;;;;;3.90;2.70;;;6.60;87.60;;;;;;5052825;28;20056;-46
2022/04/18 04:36:49;;;;;;;4.43;2.20;;;6.60;87.70;;;;;;5052587;28;20072;-47
2022/04/18 04:39:16;;;;;;;3.33;2.67;;;6.60;88.00;;;;;;5052435;28;20025;-47
2022/04/18 04:41:42;;;;;;;3.97;2.80;;;6.50;88.20;;;;;;5052599;28;20021;-47
2022/04/18 04:44:08;;;;;;;4.43;2.78;;;6.50;88.50;;;;;;5052663;28;20040;-47
2022/04/18 04:46:34;;;;;;;3.92;2.45;;;6.40;88.70;;;;;;5052479;28;20431;-46
2022/04/18 04:49:00;;;;;;;4.25;3.10;;;6.40;88.80;;;;;;5052202;28;20036;-48
2022/04/18 04:51:25;;;;;;;3.55;2.38;;;6.40;89.30;;;;;;5052440;28;20490;-49
2022/04/18 04:53:51;;;;;;;5.05;2.53;;;6.30;89.70;;;;;;5051240;28;20041;-47
2022/04/18 04:56:21;;;;;;;2.50;2.30;;;6.40;89.60;;;;;;5051921;28;20033;-46
2022/04/18 04:58:47;;;;;;;2.70;2.33;;;6.50;89.30;;;;;;5052328;28;20048;-46
2022/04/18 05:01:12;;;;;;;3.75;2.63;;;6.60;88.70;;;;;;5051586;28;20065;-48
2022/04/18 05:03:38;;;;;;;3.67;2.72;;;6.80;88.10;;;;;;5051082;28;20025;-49
2022/04/18 05:06:04;;;;;;;4.10;3.15;;;6.90;87.80;;;;;;5050932;28;20021;-49
2022/04/18 05:08:29;;;;;;;3.33;2.47;;;7.00;87.50;;;;;;5050708;28;20451;-49
2022/04/18 05:10:59;;;;;;;3.35;2.55;;;7.00;87.10;;;;;;5051280;28;20067;-46
2022/04/18 05:13:25;;;;;;;3.63;2.63;;;7.00;87.40;;;;;;5052292;28;20029;-47
2022/04/18 05:15:50;;;;;;;3.00;2.70;;;7.10;87.20;;;;;;5052182;28;20511;-47
2022/04/18 05:18:16;;;;;;;3.50;2.22;;;7.20;86.90;;;;;;5051692;28;20603;-47
2022/04/18 05:20:41;;;;;;;4.32;2.80;;;7.30;86.70;;;;;;5052395;28;20033;-46
2022/04/18 05:23:07;;;;;;;3.55;2.67;;;7.40;86.10;;;;;;5052554;28;20051;-50
2022/04/18 05:25:32;;;;;;;3.15;2.47;;;7.60;85.40;;;;;;5052691;28;20481;-44
2022/04/18 05:27:58;;;;;;;2.90;2.08;;;7.70;84.70;;;;;;5052463;28;20017;-46
2022/04/18 05:30:23;;;;;;;3.05;2.58;;;7.80;84.50;;;;;;5050851;28;20075;-46
2022/04/18 05:32:49;;;;;;;5.13;2.58;;;8.00;84.00;;;;;;5052085;28;20488;-48
2022/04/18 05:35:15;;;;;;;4.55;3.08;;;8.10;83.90;;;;;;5050679;28;20382;-47
2022/04/18 05:37:40;;;;;;;3.60;2.45;;;8.20;83.50;;;;;;5051624;28;20056;-47
2022/04/18 05:40:06;;;;;;;2.58;2.38;;;8.20;83.10;;;;;;5050400;28;20509;-47
2022/04/18 05:42:32;;;;;;;5.43;2.70;;;8.20;83.20;;;;;;5051777;28;20078;-48
2022/04/18 05:44:57;;;;;;;3.45;2.35;;;8.20;83.10;;;;;;5051819;28;20431;-48
2022/04/18 05:47:24;;;;;;;3.15;2.63;;;8.40;82.50;;;;;;5051291;28;20044;-48
2022/04/18 05:49:49;;;;;;;5.15;2.85;;;8.60;81.80;;;;;;5051617;28;20074;-46
2022/04/18 05:52:15;;;;;;;4.03;2.97;;;8.90;80.70;;;;;;5051863;28;20017;-46
2022/04/18 05:54:41;;;;;;;4.00;2.80;;;9.10;79.60;;;;;;5051476;28;20021;-49
2022/04/18 05:57:06;;;;;;;4.20;2.55;;;9.30;79.30;;;;;;5050746;28;20600;-52
2022/04/18 05:59:32;;;;;;;2.50;2.30;;;9.40;78.70;;;;;;5049931;28;20396;-50
2022/04/18 06:01:58;;;;;;;2.95;2.65;;;9.40;78.20;;;;;;5033525;28;20104;-49
2022/04/18 06:04:23;;;;;;;3.42;2.42;;;9.30;78.50;;;;;;5051489;28;20094;-49
2022/04/18 06:06:49;;;;;;;2.50;2.30;;;9.40;78.50;;;;;;5051227;28;20033;-51
2022/04/18 06:09:14;;;;;;;2.42;2.20;;;9.40;78.60;;;;;;5051152;28;20044;-49
2022/04/18 06:11:40;;;;;;;3.65;2.60;;;9.50;79.00;;;;;;5052175;28;20499;-44
2022/04/18 06:14:07;;;;;;;4.35;2.47;;;9.70;78.60;;;;;;5054021;28;20032;-49
2022/04/18 06:16:33;;;;;;;3.45;2.35;;;10.00;77.10;;;;;;5055344;28;20053;-49
2022/04/18 06:18:58;;;;;;;3.05;2.40;;;10.40;75.90;;;;;;5053519;28;20033;-46
2022/04/18 06:21:24;;;;;;;3.17;2.63;;;10.60;75.10;;;;;;5055470;28;20484;-46
2022/04/18 06:23:50;;;;;;;2.55;2.33;;;10.50;75.10;;;;;;5055360;28;20025;-48
2022/04/18 06:26:15;;;;;;;1.88;1.77;;;10.80;75.30;;;;;;5055199;28;20409;-50
2022/04/18 06:28:41;;;;;;;2.92;2.33;;;11.00;74.60;;;;;;5051664;28;20096;-46
2022/04/18 06:31:06;;;;;;;4.78;2.45;;;10.90;74.10;;;;;;5054846;28;20037;-51
2022/04/18 06:33:34;;;;;;;3.10;2.72;;;11.00;73.60;;;;;;5035392;28;20091;-48
2022/04/18 06:36:01;;;;;;;3.85;2.40;;;10.90;73.00;;;;;;5043447;28;20439;-47
2022/04/18 06:38:28;;;;;;;3.53;1.98;;;10.70;73.30;;;;;;5049094;28;20056;-46
2022/04/18 06:40:57;;;;;;;2.70;2.30;;;10.70;73.90;;;;;;5054041;28;20021;-47
2022/04/18 06:43:23;;;;;;;3.33;2.97;;;11.20;72.80;;;;;;5054695;28;20361;-49
2022/04/18 06:45:49;;;;;;;3.45;2.33;;;11.40;72.10;;;;;;5054771;28;20139;-48
2022/04/18 06:48:14;;;;;;;7.70;2.15;;;11.70;71.00;;;;;;5053427;28;20413;-44
2022/04/18 06:50:40;;;;;;;3.20;2.42;;;11.80;70.90;;;;;;5054415;28;20497;-42
2022/04/18 06:53:05;;;;;;;2.63;1.98;;;12.10;70.70;;;;;;5036114;28;20550;-47
2022/04/18 06:56:58;;;;;;;2.47;2.03;;;12.40;69.70;;;;;;5036640;28;20025;-46
2022/04/18 06:58:17;;;;;;;5.30;2.65;;;12.50;68.80;;;;;;5053412;28;20029;-46
2022/04/18 07:00:42;;;;;;;4.45;2.20;;;12.50;69.30;;;;;;5053762;28;20039;-45
2022/04/18 07:03:08;;;;;;;6.57;2.50;;;12.50;69.60;;;;;;5053313;28;20021;-50
2022/04/18 07:05:33;;;;;;;5.00;2.60;;;12.20;69.80;;;;;;5053811;28;20086;-51
2022/04/18 07:07:59;;;;;;;6.03;2.42;;;12.00;70.60;;;;;;5054030;28;20091;-52
2022/04/18 07:10:24;;;;;;;2.65;2.28;;;11.90;70.30;;;;;;5054378;28;20021;-51
2022/04/18 07:12:50;;;;;;;2.90;2.50;;;12.30;70.60;;;;;;5054207;28;20051;-49
2022/04/18 07:15:15;;;;;;;2.35;2.15;;;12.30;69.00;;;;;;5054274;28;20087;-48
2022/04/18 07:17:41;;;;;;;4.00;2.17;;;12.30;68.70;;;;;;5053552;28;20021;-53
2022/04/18 07:20:07;;;;;;;2.20;2.05;;;12.30;69.00;;;;;;5053863;28;20036;-49
2022/04/18 07:22:40;;;;;;;3.95;2.40;;;12.60;68.90;;;;;;5054119;28;20100;-48
2022/04/18 07:25:07;;;;;;;3.28;2.70;;;12.30;69.10;;;;;;5053406;28;20381;-48
2022/04/18 07:27:32;;;;;;;4.95;3.05;;;12.10;69.00;;;;;;5053762;28;20483;-47
2022/04/18 07:29:58;;;;;;;2.50;2.30;;;11.90;69.90;;;;;;5053925;28;20336;-50
2022/04/18 07:32:23;;;;;;;4.00;2.13;;;12.20;69.60;;;;;;5053847;28;20021;-46
2022/04/18 07:34:49;;;;;;;3.60;2.20;;;12.60;69.40;;;;;;5053812;28;20055;-50
2022/04/18 07:37:14;;;;;;;4.70;2.58;;;12.80;69.00;;;;;;5053313;28;20025;-48
2022/04/18 07:39:40;;;;;;;2.85;2.35;;;12.90;67.80;;;;;;5053700;28;20033;-48
2022/04/18 07:42:06;;;;;;;2.53;2.33;;;13.10;67.80;;;;;;5053376;28;20051;-45
2022/04/18 07:44:31;;;;;;;3.67;2.33;;;13.70;66.70;;;;;;5053627;28;20025;-49
2022/04/18 07:46:58;;;;;;;2.30;2.00;;;14.30;65.20;;;;;;5051503;28;20403;-47
2022/04/18 07:49:24;;;;;;;4.72;3.15;;;14.70;64.20;;;;;;5051717;28;20025;-48
2022/04/18 07:51:49;;;;;;;2.80;2.50;;;14.40;64.10;;;;;;5053424;28;20029;-49
2022/04/18 07:54:17;;;;;;;3.22;2.17;;;14.60;65.00;;;;;;5035348;28;20412;-48
2022/04/18 07:56:46;;;;;;;6.72;2.55;;;15.00;63.00;;;;;;5034870;28;20028;-47
2022/04/18 07:59:12;;;;;;;2.42;2.22;;;15.80;63.40;;;;;;5052832;28;20104;-47
2022/04/18 08:01:38;;;;;;;3.28;2.42;;;16.80;60.50;;;;;;5053310;28;20480;-50
2022/04/18 08:04:04;;;;;;;3.13;2.42;;;16.90;57.80;;;;;;5053305;28;20245;-51
2022/04/18 08:06:31;;;;;;;3.47;2.47;;;16.60;59.00;;;;;;5054024;28;20017;-50
2022/04/18 08:08:56;;;;;;;3.35;2.30;;;16.60;58.70;;;;;;5054025;28;20025;-54
2022/04/18 08:11:22;;;;;;;4.93;2.60;;;17.00;58.00;;;;;;5054434;28;20079;-47
2022/04/18 08:13:49;;;;;;;3.58;2.45;;;17.30;58.10;;;;;;5054482;28;20032;-48
2022/04/18 08:16:15;;;;;;;2.45;2.25;;;17.80;55.90;;;;;;5057397;28;20074;-50
2022/04/18 08:18:44;;;;;;;4.25;2.60;;;17.00;56.80;;;;;;5063767;23;20136;-46
2022/04/18 08:21:11;;;;;;;2.92;2.47;;;17.40;57.70;;;;;;5039965;28;20511;-51
2022/04/18 08:23:38;;;;;;;4.18;2.50;;;18.00;55.30;;;;;;5067303;28;20028;-48
2022/04/18 08:26:04;;;;;;;4.40;2.30;;;17.50;55.90;;;;;;5033293;28;20485;-48
2022/04/18 08:28:30;;;;;;;3.13;2.40;;;17.90;55.90;;;;;;5017861;28;20044;-50
2022/04/18 08:30:57;;;;;;;6.55;2.58;;;18.20;54.90;;;;;;5036743;28;20025;-44
2022/04/18 08:33:23;;;;;;;5.45;2.22;;;18.50;55.30;;;;;;5041745;28;20035;-43
2022/04/18 08:35:52;;;;;;;41.47;27.17;;;19.10;55.30;;;;;;5035586;28;20109;-49
2022/04/18 08:38:17;;;;;;;32.17;21.13;;;18.70;53.40;;;;;;5037970;28;20025;-46
2022/04/18 08:40:43;;;;;;;6.20;3.78;;;18.50;53.70;;;;;;5037133;28;20113;-47
2022/04/18 08:43:10;;;;;;;3.53;3.15;;;18.80;53.70;;;;;;5033332;28;20112;-46
2022/04/18 08:45:39;;;;;;;4.55;2.60;;;18.80;53.10;;;;;;5032948;28;20029;-52
2022/04/18 08:53:35;;;;;;;3.92;2.60;;;20.10;51.80;;;;;;5033073;28;20042;-46
2022/04/18 08:56:08;;;;;;;4.35;2.58;;;19.50;51.40;;;;;;5118717;27;20180;-47
2022/04/18 08:58:34;;;;;;;3.65;2.50;;;19.10;51.90;;;;;;5089158;28;20035;-44
2022/04/18 09:01:02;;;;;;;9.13;3.20;;;18.20;53.10;;;;;;5089630;28;20095;-45
2022/04/18 09:03:28;;;;;;;2.78;2.20;;;18.10;53.00;;;;;;5085613;28;20369;-49
2022/04/18 09:06:26;;;;;;;4.28;2.63;;;18.60;52.90;;;;;;5071918;28;20077;-52
2022/04/18 09:08:57;;;;;;;3.38;3.00;;;18.40;52.90;;;;;;5076641;28;20028;-47
2022/04/18 09:11:31;;;;;;;3.83;3.05;;;18.10;53.20;;;;;;5070500;28;20021;-45
2022/04/18 09:14:10;;;;;;;3.90;2.85;;;18.00;53.00;;;;;;5065346;28;20025;-46
2022/04/18 09:16:38;;;;;;;2.53;2.30;;;17.80;52.40;;;;;;5089827;28;20104;-48
2022/04/18 09:19:16;;;;;;;3.08;2.30;;;17.50;53.90;;;;;;5079950;28;20074;-50
2022/04/18 09:22:00;;;;;;;4.57;2.40;;;17.50;54.50;;;;;;5072633;28;20102;-48
2022/04/18 09:24:34;;;;;;;3.53;2.60;;;17.00;54.80;;;;;;5067668;28;20029;-49
2022/04/18 09:27:14;;;;;;;4.55;2.95;;;17.10;55.60;;;;;;5096100;28;20039;-45
2022/04/18 09:29:40;;;;;;;3.22;2.90;;;17.10;54.40;;;;;;5083325;28;20438;-51
2022/04/18 09:32:11;;;;;;;3.10;2.80;;;16.70;55.80;;;;;;5080198;28;20032;-50
2022/04/18 09:34:38;;;;;;;10.18;3.88;;;16.70;55.50;;;;;;5069550;28;20092;-45
2022/04/18 09:37:17;;;;;;;2.97;2.30;;;16.40;56.50;;;;;;5068212;28;20028;-46
2022/04/18 09:39:50;;;;;;;7.50;2.70;;;16.70;56.00;;;;;;5068102;28;20063;-49
2022/04/18 09:42:15;;;;;;;4.32;2.40;;;17.20;55.70;;;;;;5083612;28;20029;-47
2022/04/18 09:44:41;;;;;;;7.28;2.58;;;17.30;55.10;;;;;;5088413;28;20028;-52
2022/04/18 09:47:07;;;;;;;4.20;2.40;;;17.40;56.10;;;;;;5088009;28;20036;-47
2022/04/18 09:49:37;;;;;;;5.28;2.50;;;17.30;55.70;;;;;;5088151;28;20602;-45
2022/04/18 09:52:09;;;;;;;2.35;2.13;;;17.10;55.30;;;;;;5088421;28;20389;-47
2022/04/18 09:54:35;;;;;;;6.72;2.78;;;17.20;55.70;;;;;;5086800;28;20036;-44
2022/04/18 09:57:06;;;;;;;2.55;2.20;;;17.30;56.60;;;;;;5088229;28;20499;-46
2022/04/18 09:59:32;;;;;;;5.32;4.82;;;17.30;56.20;;;;;;5088155;28;20603;-45
2022/04/18 10:01:59;;;;;;;9.15;5.22;;;17.20;56.70;;;;;;5063788;28;20602;-46
2022/04/18 10:04:26;;;;;;;4.40;2.88;;;17.30;57.00;;;;;;5065860;28;20056;-45
2022/04/18 10:06:56;;;;;;;3.03;2.72;;;17.00;56.60;;;;;;5057230;28;20106;-46
2022/04/18 10:09:24;;;;;;;4.10;2.75;;;16.50;55.90;;;;;;5053448;28;20028;-48
2022/04/18 10:11:51;;;;;;;6.00;3.13;;;16.20;57.20;;;;;;5052451;28;20029;-45
2022/04/18 10:14:16;;;;;;;4.38;2.70;;;16.00;57.30;;;;;;5053434;28;20033;-46
2022/04/18 10:16:43;;;;;;;3.20;2.20;;;16.00;57.40;;;;;;5053335;28;20392;-49
2022/04/18 10:19:38;;;;;;;2.80;1.92;;;16.10;56.70;;;;;;5070441;28;20445;-49
2022/04/18 10:22:55;;;;;;;2.25;2.00;;;16.30;57.00;;;;;;5068445;28;20031;-46
2022/04/18 10:25:42;;;;;;;3.40;2.28;;;15.90;55.50;;;;;;5073505;28;20024;-45
2022/04/18 10:28:19;;;;;;;2.38;2.17;;;15.90;55.70;;;;;;5073128;28;20032;-45
2022/04/18 10:30:57;;;;;;;2.40;1.70;;;16.20;56.20;;;;;;5007970;28;20107;-46
2022/04/18 10:33:24;;;;;;;3.63;2.30;;;16.10;55.40;;;;;;5014024;28;20022;-45
2022/04/18 10:35:54;;;;;;;2.22;2.03;;;16.20;56.10;;;;;;5013825;28;20030;-45
2022/04/18 10:38:27;;;;;;;2.30;2.10;;;16.20;56.00;;;;;;5008629;28;20037;-49
2022/04/18 10:44:01;;;;;;;3.25;2.55;;;16.20;56.00;;;;;;5013711;28;20033;-49
2022/04/18 10:46:27;;;;;;;4.38;2.15;;;16.10;56.00;;;;;;5013009;28;20029;-51
2022/04/18 10:48:58;;;;;;;3.20;2.10;;;16.20;55.90;;;;;;5008597;28;20496;-47
2022/04/18 10:51:37;;;;;;;2.40;2.05;;;15.90;55.50;;;;;;5012199;28;20514;-50
2022/04/18 10:54:13;;;;;;;4.03;2.40;;;15.70;55.90;;;;;;5010951;28;20033;-49
2022/04/18 10:56:50;;;;;;;2.47;2.10;;;15.70;54.90;;;;;;5010362;28;20030;-46
2022/04/18 10:59:18;;;;;;;3.33;2.05;;;15.80;55.60;;;;;;5007900;28;20026;-45
2022/04/18 11:01:44;;;;;;;2.55;1.90;;;15.70;56.40;;;;;;5012025;28;20034;-46
2022/04/18 11:04:12;;;;;;;2.75;2.13;;;15.80;55.90;;;;;;5011944;28;20033;-46
2022/04/18 11:06:38;;;;;;;2.28;2.08;;;15.90;56.20;;;;;;5011932;28;20022;-45
2022/04/18 11:09:07;;;;;;;3.22;2.10;;;16.10;56.50;;;;;;5009766;28;20489;-46
2022/04/18 11:11:42;;;;;;;2.40;1.90;;;16.10;56.30;;;;;;5013159;28;20109;-48
2022/04/18 11:14:26;;;;;;;4.50;2.53;;;16.00;56.20;;;;;;5005552;28;20371;-47
2022/04/18 11:17:02;;;;;;;4.57;2.53;;;15.90;56.60;;;;;;5006861;28;20036;-54
2022/04/18 11:19:32;;;;;;;3.95;2.75;;;16.00;56.50;;;;;;5012524;28;20076;-46
2022/04/18 11:21:59;;;;;;;2.45;2.25;;;15.90;57.00;;;;;;5013371;28;20018;-48
2022/04/18 11:24:41;;;;;;;2.97;2.42;;;15.90;57.10;;;;;;5013578;28;20120;-45
2022/04/18 11:27:18;;;;;;;4.60;2.35;;;15.80;56.50;;;;;;5001860;28;20065;-44
2022/04/18 11:29:50;;;;;;;3.13;1.90;;;15.90;56.10;;;;;;4993497;28;20441;-43
2022/04/18 11:32:17;;;;;;;2.47;2.20;;;15.90;55.10;;;;;;4993636;28;20049;-44
2022/04/18 11:34:45;;;;;;;2.40;1.85;;;15.80;56.50;;;;;;4993372;28;20036;-46
2022/04/18 11:37:13;;;;;;;6.75;2.50;;;15.90;57.20;;;;;;5006488;28;20022;-46
2022/04/18 11:39:48;;;;;;;4.70;2.10;;;15.90;57.20;;;;;;5011936;28;20026;-49
2022/04/18 11:42:15;;;;;;;2.25;2.05;;;16.00;56.80;;;;;;5014027;28;20029;-44
2022/04/18 11:44:42;;;;;;;3.58;2.20;;;16.00;54.90;;;;;;5013063;28;20032;-45
2022/04/18 11:47:16;;;;;;;3.28;1.80;;;15.90;55.60;;;;;;5012332;28;20033;-43
2022/04/18 11:49:44;;;;;;;8.02;2.05;;;16.00;56.10;;;;;;5013562;28;20485;-44
2022/04/18 11:52:21;;;;;;;2.92;2.08;;;16.10;55.00;;;;;;5012783;28;20044;-53
2022/04/18 11:55:04;;;;;;;1.98;1.77;;;16.10;55.60;;;;;;5026537;28;20030;-49
2022/04/18 11:57:33;;;;;;;2.80;1.88;;;16.20;54.10;;;;;;5012209;28;20025;-46
2022/04/18 11:59:59;;;;;;;2.13;1.80;;;16.10;54.60;;;;;;5012383;28;20042;-47
2022/04/18 12:08:05;;;;;;;3.40;2.03;;;16.10;55.00;;;;;;5012593;28;20143;-46
2022/04/18 12:10:35;;;;;;;2.53;1.90;;;16.20;54.70;;;;;;5012385;28;20025;-48
2022/04/18 12:13:11;;;;;;;3.03;1.98;;;16.10;54.50;;;;;;5012453;28;20037;-48
2022/04/18 12:15:37;;;;;;;7.30;2.10;;;16.00;54.50;;;;;;5012219;28;20500;-47
2022/04/18 12:18:16;;;;;;;2.50;1.83;;;16.10;55.00;;;;;;5012119;28;20062;-44
2022/04/18 12:20:44;;;;;;;3.45;2.40;;;16.10;54.90;;;;;;5012469;28;20025;-45
2022/04/18 12:23:24;;;;;;;4.00;1.75;;;16.20;54.70;;;;;;5012853;28;20543;-50
2022/04/18 12:25:54;;;;;;;2.22;1.70;;;16.20;54.40;;;;;;5012505;28;20119;-49
2022/04/18 12:28:26;;;;;;;1.92;1.55;;;16.30;53.10;;;;;;5012427;28;20022;-46
2022/04/18 12:30:52;;;;;;;4.38;2.20;;;16.30;53.60;;;;;;5012303;28;20033;-46
2022/04/18 12:33:30;;;;;;;2.65;2.30;;;16.40;53.80;;;;;;5010996;28;20033;-48
2022/04/18 12:35:57;;;;;;;3.33;1.75;;;16.50;53.00;;;;;;5012393;28;20064;-46
2022/04/18 12:38:36;;;;;;;3.70;1.73;;;16.40;53.00;;;;;;5011640;28;20395;-48
2022/04/18 12:41:03;;;;;;;4.43;1.60;;;16.40;53.90;;;;;;5012156;28;20029;-46
2022/04/18 12:43:33;;;;;;;1.55;1.30;;;16.60;54.80;;;;;;5012014;28;20022;-45
2022/04/18 12:46:01;;;;;;;3.15;2.28;;;16.60;53.50;;;;;;5012180;28;20030;-47
2022/04/18 12:48:29;;;;;;;1.67;1.58;;;16.50;54.30;;;;;;5011913;28;20083;-47
2022/04/18 12:50:57;;;;;;;1.95;1.40;;;16.50;55.40;;;;;;5012433;28;20026;-46
2022/04/18 12:53:50;;;;;;;3.67;1.73;;;16.60;54.40;;;;;;5009626;28;20492;-52
2022/04/18 12:56:20;;;;;;;7.47;1.88;;;16.70;52.70;;;;;;5006882;28;20033;-48
2022/04/18 12:58:47;;;;;;;2.33;1.85;;;16.60;53.50;;;;;;5011835;28;20018;-48
2022/04/18 13:01:21;;;;;;;4.45;2.20;;;16.50;53.90;;;;;;5012197;28;20508;-50
2022/04/18 13:03:47;;;;;;;3.30;1.92;;;16.60;53.50;;;;;;5012093;28;20025;-48
2022/04/18 13:06:13;;;;;;;2.72;1.73;;;16.60;53.40;;;;;;5012189;28;20022;-50
2022/04/18 13:08:40;;;;;;;2.58;1.92;;;16.70;54.60;;;;;;5011530;28;20055;-47
2022/04/18 13:11:06;;;;;;;2.28;1.58;;;16.80;53.90;;;;;;5010472;28;20041;-48
2022/04/18 13:13:32;;;;;;;1.95;1.48;;;16.90;54.20;;;;;;5012492;28;20022;-49
2022/04/18 13:16:24;;;;;;;3.88;1.98;;;17.00;52.80;;;;;;5012004;28;20026;-47
2022/04/18 13:19:01;;;;;;;2.20;1.70;;;17.00;54.20;;;;;;5011670;28;20033;-46